Time;durP1;ratioP1;P1;durP2;ratioP2;P2;SDS_P1;SDS_P2;PMS_P1;PMS_P2;Temp;Humidity;BMP_temperature;BMP_pressure;BME280_temperature;BME280_humidity;BME280_pressure;Samples;Min_cycle;Max_cycle;Signal;HPM_P1;HPM_P2
2022/01/08 00:02:03;;;;;;;0.00;0.00;;;;;;;;;;4989667;28;20686;-75
2022/01/08 00:04:30;;;;;;;0.00;0.00;;;;;;;;;;4987755;28;20212;-78
2022/01/08 00:06:58;;;;;;;0.00;0.00;;;;;;;;;;4987797;28;20205;-78
2022/01/08 00:09:26;;;;;;;0.00;0.00;;;;;;;;;;4983436;28;20198;-77
2022/01/08 00:11:54;;;;;;;0.00;0.00;;;;;;;;;;4983198;28;20594;-76
2022/01/08 00:14:24;;;;;;;0.00;0.00;;;;;;;;;;4984762;28;20213;-75
2022/01/08 00:16:51;;;;;;;0.00;0.00;;;;;;;;;;4987701;28;20592;-78
2022/01/08 00:19:19;;;;;;;0.10;0.10;;;;;;;;;;4984619;28;20276;-77
2022/01/08 00:21:46;;;;;;;0.00;0.00;;;;;;;;;;4979896;28;20221;-76
2022/01/08 00:24:13;;;;;;;0.50;0.30;;;;;;;;;;4979893;28;20237;-76
2022/01/08 00:26:42;;;;;;;0.00;0.00;;;;;;;;;;4982858;28;20702;-75
2022/01/08 00:29:10;;;;;;;0.00;0.00;;;;;;;;;;4982731;28;20209;-76
2022/01/08 00:31:37;;;;;;;0.30;0.30;;;;;;;;;;4983996;28;20218;-77
2022/01/08 00:34:04;;;;;;;0.00;0.00;;;;;;;;;;4980595;28;20281;-76
2022/01/08 00:36:32;;;;;;;0.00;0.00;;;;;;;;;;4981423;28;20213;-77
2022/01/08 00:38:59;;;;;;;0.00;0.00;;;;;;;;;;4981840;28;20216;-74
2022/01/08 00:41:26;;;;;;;0.00;0.00;;;;;;;;;;4982318;28;20225;-76
2022/01/08 00:43:55;;;;;;;0.00;0.00;;;;;;;;;;4980966;28;20209;-76
2022/01/08 00:46:23;;;;;;;0.00;0.00;;;;;;;;;;4981483;28;20205;-75
2022/01/08 00:48:50;;;;;;;0.00;0.00;;;;;;;;;;4979436;28;20667;-77
2022/01/08 00:51:17;;;;;;;0.00;0.00;;;;;;;;;;4981227;28;20202;-76
2022/01/08 00:53:45;;;;;;;0.00;0.00;;;;;;;;;;4978971;28;20210;-76
2022/01/08 00:56:14;;;;;;;0.10;0.10;;;;;;;;;;4981898;28;20574;-76
2022/01/08 00:58:41;;;;;;;0.00;0.00;;;;;;;;;;4982794;28;20201;-77
2022/01/08 01:01:10;;;;;;;0.00;0.00;;;;;;;;;;4982018;28;20225;-73
2022/01/08 01:03:37;;;;;;;0.00;0.00;;;;;;;;;;4979866;28;20221;-75
2022/01/08 01:06:06;;;;;;;0.00;0.00;;;;;;;;;;4978248;28;20698;-77
2022/01/08 01:08:33;;;;;;;0.00;0.00;;;;;;;;;;4979667;28;20218;-75
2022/01/08 01:11:01;;;;;;;0.00;0.00;;;;;;;;;;4984825;28;20709;-74
2022/01/08 01:13:28;;;;;;;0.00;0.00;;;;;;;;;;4981173;28;20205;-76
2022/01/08 01:15:57;;;;;;;7.33;0.20;;;;;;;;;;4985349;28;20678;-76
2022/01/08 01:18:25;;;;;;;0.27;0.27;;;;;;;;;;4982677;28;20320;-77
2022/01/08 01:20:53;;;;;;;0.00;0.00;;;;;;;;;;4989670;28;20703;-77
2022/01/08 01:23:26;;;;;;;0.00;0.00;;;;;;;;;;4979288;28;20500;-76
2022/01/08 01:25:59;;;;;;;0.30;0.20;;;;;;;;;;4973449;28;20234;-75
2022/01/08 01:28:40;;;;;;;0.33;0.00;;;;;;;;;;4980767;28;20216;-76
2022/01/08 01:42:50;;;;;;;0.00;0.00;;;;;;;;;;4980669;28;20259;-78
2022/01/08 01:48:02;;;;;;;0.00;0.00;;;;;;;;;;4980613;28;20209;-76
2022/01/08 01:50:31;;;;;;;0.00;0.00;;;;;;;;;;4980796;28;20198;-78
2022/01/08 01:52:59;;;;;;;0.00;0.00;;;;;;;;;;4982820;28;20216;-78
2022/01/08 01:55:26;;;;;;;0.00;0.00;;;;;;;;;;4985029;28;20208;-77
2022/01/08 01:57:54;;;;;;;0.10;0.10;;;;;;;;;;4980943;28;20206;-76
2022/01/08 02:00:22;;;;;;;0.47;0.47;;;;;;;;;;4982655;28;20320;-76
2022/01/08 02:02:49;;;;;;;0.00;0.00;;;;;;;;;;4981030;28;20213;-78
2022/01/08 02:05:17;;;;;;;0.00;0.00;;;;;;;;;;4980778;28;20214;-78
2022/01/08 02:07:46;;;;;;;0.13;0.13;;;;;;;;;;4980707;28;20201;-78
2022/01/08 02:10:14;;;;;;;0.10;0.10;;;;;;;;;;4986436;28;20213;-77
2022/01/08 02:12:41;;;;;;;0.07;0.07;;;;;;;;;;4985729;28;20320;-77
2022/01/08 02:15:09;;;;;;;0.20;0.20;;;;;;;;;;4986340;28;20567;-78
2022/01/08 02:17:36;;;;;;;0.30;0.30;;;;;;;;;;4988475;28;20197;-78
2022/01/08 02:20:06;;;;;;;0.10;0.10;;;;;;;;;;4983145;28;20202;-77
2022/01/08 02:22:33;;;;;;;1.10;0.20;;;;;;;;;;4985204;28;20213;-78
2022/01/08 02:25:00;;;;;;;0.10;0.10;;;;;;;;;;4987496;28;20699;-75
2022/01/08 02:27:28;;;;;;;0.47;0.47;;;;;;;;;;4985357;28;20216;-79
2022/01/08 02:29:55;;;;;;;0.37;0.20;;;;;;;;;;4982762;28;20201;-77
2022/01/08 02:32:26;;;;;;;0.00;0.00;;;;;;;;;;4988741;28;20212;-78
2022/01/08 02:34:54;;;;;;;0.10;0.00;;;;;;;;;;4984886;28;20241;-77
2022/01/08 02:37:25;;;;;;;0.00;0.00;;;;;;;;;;4980454;28;20218;-76
2022/01/08 02:39:53;;;;;;;0.40;0.20;;;;;;;;;;4981805;28;20284;-77
2022/01/08 02:42:21;;;;;;;0.20;0.20;;;;;;;;;;4978577;28;20233;-78
2022/01/08 02:44:49;;;;;;;1.37;0.17;;;;;;;;;;4979614;28;20267;-78
2022/01/08 02:47:17;;;;;;;0.00;0.00;;;;;;;;;;4978911;28;20213;-76
2022/01/08 02:49:44;;;;;;;0.10;0.00;;;;;;;;;;4987794;28;20663;-77
2022/01/08 02:52:12;;;;;;;0.13;0.13;;;;;;;;;;4984334;28;20682;-77
2022/01/08 02:54:41;;;;;;;0.00;0.00;;;;;;;;;;4987422;28;20217;-78
2022/01/08 02:57:09;;;;;;;0.00;0.00;;;;;;;;;;4988653;28;20201;-73
2022/01/08 02:59:37;;;;;;;0.00;0.00;;;;;;;;;;4985584;28;20216;-77
2022/01/08 03:02:04;;;;;;;0.10;0.10;;;;;;;;;;4986036;28;20709;-76
2022/01/08 03:04:32;;;;;;;0.00;0.00;;;;;;;;;;4987984;28;20197;-77
2022/01/08 03:06:59;;;;;;;0.00;0.00;;;;;;;;;;4985259;28;20209;-78
2022/01/08 03:09:27;;;;;;;0.00;0.00;;;;;;;;;;4983093;28;20606;-77
2022/01/08 03:11:56;;;;;;;0.00;0.00;;;;;;;;;;4990011;28;20200;-74
2022/01/08 03:14:23;;;;;;;0.00;0.00;;;;;;;;;;4985853;28;20208;-75
2022/01/08 03:16:51;;;;;;;0.00;0.00;;;;;;;;;;4986791;28;20208;-75
2022/01/08 03:19:18;;;;;;;0.00;0.00;;;;;;;;;;4986897;28;20568;-78
2022/01/08 03:21:52;;;;;;;0.07;0.07;;;;;;;;;;4985918;28;20233;-77
2022/01/08 03:24:26;;;;;;;0.00;0.00;;;;;;;;;;4983378;28;20328;-76
2022/01/08 03:26:53;;;;;;;0.00;0.00;;;;;;;;;;4986534;28;20207;-77
2022/01/08 03:29:22;;;;;;;0.00;0.00;;;;;;;;;;4984846;28;20209;-76
2022/01/08 03:31:50;;;;;;;0.00;0.00;;;;;;;;;;4978350;28;20229;-76
2022/01/08 03:34:17;;;;;;;0.00;0.00;;;;;;;;;;4982579;28;20197;-77
2022/01/08 03:36:45;;;;;;;0.00;0.00;;;;;;;;;;4984462;28;20202;-77
2022/01/08 03:39:12;;;;;;;0.00;0.00;;;;;;;;;;4984605;28;20263;-77
2022/01/08 03:41:42;;;;;;;0.00;0.00;;;;;;;;;;4985713;28;20778;-76
2022/01/08 03:44:10;;;;;;;0.00;0.00;;;;;;;;;;4985199;28;20656;-76
2022/01/08 03:46:39;;;;;;;0.00;0.00;;;;;;;;;;4986831;28;20204;-76
2022/01/08 03:49:23;;;;;;;0.00;0.00;;;;;;;;;;4986939;28;20217;-76
2022/01/08 03:51:51;;;;;;;0.00;0.00;;;;;;;;;;4981351;28;20282;-76
2022/01/08 03:54:19;;;;;;;0.00;0.00;;;;;;;;;;4981326;28;20197;-75
2022/01/08 03:56:46;;;;;;;0.00;0.00;;;;;;;;;;4985062;28;20580;-76
2022/01/08 03:59:14;;;;;;;0.00;0.00;;;;;;;;;;4986860;28;20686;-76
2022/01/08 04:01:43;;;;;;;0.00;0.00;;;;;;;;;;4995013;28;20578;-75
2022/01/08 04:04:11;;;;;;;0.00;0.00;;;;;;;;;;4988734;28;20324;-76
2022/01/08 04:06:38;;;;;;;0.00;0.00;;;;;;;;;;4990071;28;20209;-75
2022/01/08 04:09:06;;;;;;;0.00;0.00;;;;;;;;;;4988963;28;20202;-77
2022/01/08 04:11:33;;;;;;;0.00;0.00;;;;;;;;;;4991343;28;20201;-77
2022/01/08 04:14:00;;;;;;;0.00;0.00;;;;;;;;;;4988147;28;20216;-77
2022/01/08 04:16:31;;;;;;;0.00;0.00;;;;;;;;;;4986674;28;20205;-79
2022/01/08 04:19:00;;;;;;;0.30;0.30;;;;;;;;;;4990007;28;20794;-75
2022/01/08 04:21:59;;;;;;;0.00;0.00;;;;;;;;;;4987477;28;20248;-77
2022/01/08 04:24:28;;;;;;;0.00;0.00;;;;;;;;;;4988308;28;20238;-76
2022/01/08 04:26:55;;;;;;;0.20;0.20;;;;;;;;;;4991226;28;20201;-77
2022/01/08 04:29:23;;;;;;;0.00;0.00;;;;;;;;;;4988402;28;20216;-77
2022/01/08 04:31:50;;;;;;;0.10;0.10;;;;;;;;;;4984735;28;20217;-76
2022/01/08 04:34:19;;;;;;;0.00;0.00;;;;;;;;;;4984701;28;20212;-76
2022/01/08 04:36:46;;;;;;;0.10;0.10;;;;;;;;;;4990769;28;20201;-75
2022/01/08 04:39:13;;;;;;;0.00;0.00;;;;;;;;;;4986557;28;20212;-77
2022/01/08 04:41:43;;;;;;;0.20;0.13;;;;;;;;;;4985198;28;20238;-75
2022/01/08 04:44:10;;;;;;;0.00;0.00;;;;;;;;;;4992272;28;20671;-78
2022/01/08 04:46:41;;;;;;;0.00;0.00;;;;;;;;;;4987892;28;20678;-77
2022/01/08 04:49:08;;;;;;;0.20;0.20;;;;;;;;;;4985326;28;20634;-78
2022/01/08 04:51:37;;;;;;;0.00;0.00;;;;;;;;;;4991417;28;20555;-78
2022/01/08 04:54:04;;;;;;;0.00;0.00;;;;;;;;;;4986831;28;20202;-77
2022/01/08 04:56:32;;;;;;;0.00;0.00;;;;;;;;;;4986185;28;20205;-75
2022/01/08 04:58:59;;;;;;;0.00;0.00;;;;;;;;;;4986015;28;20210;-76
2022/01/08 05:01:26;;;;;;;0.00;0.00;;;;;;;;;;4985428;28;20225;-77
2022/01/08 05:03:54;;;;;;;0.00;0.00;;;;;;;;;;4986069;28;20202;-76
2022/01/08 05:06:21;;;;;;;0.10;0.10;;;;;;;;;;4982711;28;21253;-75
2022/01/08 05:08:50;;;;;;;0.10;0.10;;;;;;;;;;4981931;28;20232;-77
2022/01/08 05:11:18;;;;;;;0.00;0.00;;;;;;;;;;4981853;28;20583;-77
2022/01/08 05:13:45;;;;;;;0.00;0.00;;;;;;;;;;4985131;28;20206;-75
2022/01/08 05:16:13;;;;;;;0.00;0.00;;;;;;;;;;4988595;28;20284;-77
2022/01/08 05:18:41;;;;;;;0.00;0.00;;;;;;;;;;4982824;28;20221;-76
2022/01/08 05:21:19;;;;;;;0.00;0.00;;;;;;;;;;4979106;28;20295;-77
2022/01/08 05:23:46;;;;;;;0.00;0.00;;;;;;;;;;4980168;28;20193;-76
2022/01/08 05:26:16;;;;;;;0.00;0.00;;;;;;;;;;4980397;28;20201;-77
2022/01/08 05:28:45;;;;;;;0.00;0.00;;;;;;;;;;4979075;28;20202;-76
2022/01/08 05:31:15;;;;;;;0.00;0.00;;;;;;;;;;4979890;28;20205;-74
2022/01/08 05:33:42;;;;;;;0.00;0.00;;;;;;;;;;4982619;28;20206;-75
2022/01/08 05:36:10;;;;;;;0.13;0.13;;;;;;;;;;4974787;28;20554;-76
2022/01/08 05:38:37;;;;;;;0.00;0.00;;;;;;;;;;4973923;28;20205;-73
2022/01/08 05:41:04;;;;;;;0.00;0.00;;;;;;;;;;4975363;28;20212;-76
2022/01/08 05:43:34;;;;;;;0.20;0.20;;;;;;;;;;4973783;28;20272;-76
2022/01/08 05:46:01;;;;;;;0.33;0.20;;;;;;;;;;4975198;28;20218;-74
2022/01/08 05:48:29;;;;;;;0.00;0.00;;;;;;;;;;4979866;28;20216;-76
2022/01/08 05:50:56;;;;;;;0.00;0.00;;;;;;;;;;4977988;28;20213;-75
2022/01/08 05:53:24;;;;;;;0.00;0.00;;;;;;;;;;4980175;28;20217;-76
2022/01/08 05:55:51;;;;;;;0.00;0.00;;;;;;;;;;4978684;28;20237;-77
2022/01/08 05:58:18;;;;;;;0.00;0.00;;;;;;;;;;4978016;28;20209;-77
2022/01/08 06:00:47;;;;;;;0.00;0.00;;;;;;;;;;4977838;28;20233;-75
2022/01/08 06:03:16;;;;;;;0.00;0.00;;;;;;;;;;4980730;28;20241;-76
2022/01/08 06:05:43;;;;;;;0.00;0.00;;;;;;;;;;4973776;28;20193;-76
2022/01/08 06:08:11;;;;;;;0.00;0.00;;;;;;;;;;4968716;28;20217;-75
2022/01/08 06:10:38;;;;;;;0.00;0.00;;;;;;;;;;4975780;28;20206;-75
2022/01/08 06:13:05;;;;;;;0.00;0.00;;;;;;;;;;4973680;28;20217;-77
2022/01/08 06:15:33;;;;;;;0.00;0.00;;;;;;;;;;4978136;28;20701;-77
2022/01/08 06:18:01;;;;;;;0.30;0.30;;;;;;;;;;4977109;28;20646;-78
2022/01/08 06:20:29;;;;;;;0.00;0.00;;;;;;;;;;4973477;28;20210;-76
2022/01/08 06:22:56;;;;;;;0.00;0.00;;;;;;;;;;4973385;28;20241;-77
2022/01/08 06:25:24;;;;;;;0.00;0.00;;;;;;;;;;4970354;28;20619;-77
2022/01/08 06:27:54;;;;;;;0.13;0.13;;;;;;;;;;4976175;28;20216;-74
2022/01/08 06:30:21;;;;;;;0.03;0.03;;;;;;;;;;4973507;28;20320;-76
2022/01/08 06:32:49;;;;;;;0.20;0.10;;;;;;;;;;4977898;28;20564;-76
2022/01/08 06:35:17;;;;;;;1.03;0.97;;;;;;;;;;4979598;28;20201;-76
2022/01/08 06:37:45;;;;;;;0.20;0.20;;;;;;;;;;4976974;28;20193;-77
2022/01/08 06:40:13;;;;;;;0.40;0.10;;;;;;;;;;4976153;28;20197;-76
2022/01/08 06:42:40;;;;;;;0.00;0.00;;;;;;;;;;4980535;28;21115;-78
2022/01/08 06:45:08;;;;;;;0.00;0.00;;;;;;;;;;4977528;28;20201;-78
2022/01/08 06:47:35;;;;;;;0.00;0.00;;;;;;;;;;4969557;28;20216;-76
2022/01/08 06:50:02;;;;;;;0.03;0.03;;;;;;;;;;4971251;28;20210;-73
2022/01/08 06:52:33;;;;;;;0.00;0.00;;;;;;;;;;4974423;28;20276;-78
2022/01/08 06:55:01;;;;;;;0.30;0.27;;;;;;;;;;4978259;28;20714;-75
2022/01/08 06:57:28;;;;;;;0.13;0.13;;;;;;;;;;4981739;28;20717;-77
2022/01/08 06:59:56;;;;;;;0.00;0.00;;;;;;;;;;4988545;28;20240;-76
2022/01/08 07:02:23;;;;;;;0.23;0.23;;;;;;;;;;4980425;28;20225;-76
2022/01/08 07:04:50;;;;;;;0.43;0.43;;;;;;;;;;4984136;28;20206;-76
2022/01/08 07:07:18;;;;;;;0.53;0.43;;;;;;;;;;4979696;28;20659;-76
2022/01/08 07:09:47;;;;;;;2.60;1.40;;;;;;;;;;4980903;28;20202;-78
2022/01/08 07:12:14;;;;;;;0.97;0.97;;;;;;;;;;4979163;28;20574;-78
2022/01/08 07:14:42;;;;;;;2.13;1.40;;;;;;;;;;4981123;28;20213;-77
2022/01/08 07:17:09;;;;;;;1.33;0.97;;;;;;;;;;4979109;28;20288;-72
2022/01/08 07:19:36;;;;;;;0.73;0.73;;;;;;;;;;4976900;28;20213;-77
2022/01/08 07:22:04;;;;;;;0.40;0.27;;;;;;;;;;4983563;28;20234;-78
2022/01/08 07:24:31;;;;;;;1.30;1.03;;;;;;;;;;4982315;28;20237;-76
2022/01/08 07:27:00;;;;;;;0.10;0.10;;;;;;;;;;4981187;28;20671;-78
2022/01/08 07:29:27;;;;;;;0.57;0.57;;;;;;;;;;4981267;28;20212;-75
2022/01/08 07:31:55;;;;;;;0.77;0.77;;;;;;;;;;4987824;28;20205;-78
2022/01/08 07:34:22;;;;;;;0.00;0.00;;;;;;;;;;4981564;28;20209;-78
2022/01/08 07:36:50;;;;;;;0.60;0.60;;;;;;;;;;4984154;28;20263;-75
2022/01/08 07:39:17;;;;;;;0.93;0.87;;;;;;;;;;4980839;28;20205;-73
2022/01/08 07:41:45;;;;;;;0.87;0.87;;;;;;;;;;4983746;28;20884;-77
2022/01/08 07:44:13;;;;;;;0.40;0.40;;;;;;;;;;4979552;28;20229;-75
2022/01/08 07:46:41;;;;;;;0.00;0.00;;;;;;;;;;4982289;28;20206;-80
2022/01/08 07:49:10;;;;;;;1.03;1.03;;;;;;;;;;4978364;28;20214;-75
2022/01/08 07:51:37;;;;;;;3.00;1.67;;;;;;;;;;4978438;28;20252;-76
2022/01/08 07:54:04;;;;;;;0.23;0.23;;;;;;;;;;4980129;28;20202;-75
2022/01/08 07:56:34;;;;;;;0.47;0.47;;;;;;;;;;4982982;28;20572;-75
2022/01/08 07:59:02;;;;;;;0.97;0.97;;;;;;;;;;4982060;28;20210;-77
2022/01/08 08:01:30;;;;;;;0.63;0.63;;;;;;;;;;4982597;28;20197;-74
2022/01/08 08:03:58;;;;;;;1.60;0.97;;;;;;;;;;4981415;28;20723;-75
2022/01/08 08:06:25;;;;;;;0.23;0.23;;;;;;;;;;4985983;28;20206;-75
2022/01/08 08:08:52;;;;;;;3.63;1.47;;;;;;;;;;4983756;28;20198;-75
2022/01/08 08:11:20;;;;;;;2.37;0.93;;;;;;;;;;4981875;28;20225;-76
2022/01/08 08:13:47;;;;;;;0.93;0.67;;;;;;;;;;4983941;28;20209;-76
2022/01/08 08:16:14;;;;;;;1.20;1.20;;;;;;;;;;4981856;28;20206;-79
2022/01/08 08:18:43;;;;;;;0.20;0.20;;;;;;;;;;4978570;28;20333;-72
2022/01/08 08:21:11;;;;;;;0.30;0.30;;;;;;;;;;4977377;28;20214;-76
2022/01/08 08:23:38;;;;;;;0.47;0.47;;;;;;;;;;4979331;28;20232;-72
2022/01/08 08:26:05;;;;;;;2.93;0.80;;;;;;;;;;4976876;28;21349;-72
2022/01/08 08:28:33;;;;;;;2.30;1.80;;;;;;;;;;4977046;28;20694;-74
2022/01/08 08:31:00;;;;;;;0.47;0.33;;;;;;;;;;4978172;28;20205;-75
2022/01/08 08:33:28;;;;;;;0.63;0.63;;;;;;;;;;4977636;28;20211;-74
2022/01/08 08:35:56;;;;;;;0.00;0.00;;;;;;;;;;4979632;28;20206;-74
2022/01/08 08:38:24;;;;;;;1.27;1.27;;;;;;;;;;4977807;28;20214;-72
2022/01/08 08:40:51;;;;;;;1.33;1.17;;;;;;;;;;4979305;28;20205;-74
2022/01/08 08:43:19;;;;;;;0.87;0.53;;;;;;;;;;4976599;28;20226;-71
2022/01/08 08:45:47;;;;;;;0.03;0.03;;;;;;;;;;4979991;28;20215;-76
2022/01/08 08:48:15;;;;;;;3.23;1.67;;;;;;;;;;4979021;28;20214;-75
2022/01/08 08:50:43;;;;;;;0.17;0.17;;;;;;;;;;4980315;28;20220;-76
2022/01/08 08:53:12;;;;;;;0.03;0.03;;;;;;;;;;4979458;28;20206;-74
2022/01/08 08:55:39;;;;;;;0.20;0.10;;;;;;;;;;4977521;28;20204;-75
2022/01/08 08:58:06;;;;;;;0.00;0.00;;;;;;;;;;4976290;28;20213;-74
2022/01/08 09:00:34;;;;;;;2.67;1.17;;;;;;;;;;4980029;28;20284;-79
2022/01/08 09:03:01;;;;;;;0.63;0.63;;;;;;;;;;4978983;28;20244;-71
2022/01/08 09:05:29;;;;;;;0.13;0.13;;;;;;;;;;4981628;28;20217;-71
2022/01/08 09:07:56;;;;;;;1.97;1.50;;;;;;;;;;4982526;28;20198;-73
2022/01/08 09:10:25;;;;;;;0.17;0.17;;;;;;;;;;4982669;28;20228;-72
2022/01/08 09:12:53;;;;;;;0.73;0.67;;;;;;;;;;4983322;28;20225;-73
2022/01/08 09:15:24;;;;;;;0.20;0.20;;;;;;;;;;4978734;28;20694;-73
2022/01/08 09:17:52;;;;;;;4.70;2.37;;;;;;;;;;4981842;28;20202;-69
2022/01/08 09:20:20;;;;;;;0.10;0.00;;;;;;;;;;4976986;28;20205;-72
2022/01/08 09:22:47;;;;;;;0.93;0.77;;;;;;;;;;4977945;28;20236;-73
2022/01/08 09:25:15;;;;;;;1.60;0.20;;;;;;;;;;4975122;28;20229;-76
2022/01/08 09:27:44;;;;;;;0.13;0.13;;;;;;;;;;4977737;28;20209;-73
2022/01/08 09:30:11;;;;;;;0.30;0.20;;;;;;;;;;4978919;28;20210;-73
2022/01/08 09:32:39;;;;;;;1.07;1.03;;;;;;;;;;4974395;28;20213;-71
2022/01/08 09:35:14;;;;;;;0.30;0.30;;;;;;;;;;4977764;28;20206;-75
2022/01/08 09:37:43;;;;;;;0.90;0.57;;;;;;;;;;4974669;28;20655;-73
2022/01/08 09:40:11;;;;;;;0.50;0.50;;;;;;;;;;4975360;28;20634;-71
2022/01/08 09:42:41;;;;;;;0.83;0.57;;;;;;;;;;4977447;28;20206;-74
2022/01/08 09:45:10;;;;;;;0.80;0.80;;;;;;;;;;4975008;28;20222;-71
2022/01/08 09:47:37;;;;;;;2.30;0.80;;;;;;;;;;4977482;28;20209;-71
2022/01/08 09:50:06;;;;;;;1.13;1.07;;;;;;;;;;4974275;28;20203;-74
2022/01/08 09:52:34;;;;;;;1.40;1.30;;;;;;;;;;4978600;28;20679;-74
2022/01/08 09:55:07;;;;;;;1.60;1.00;;;;;;;;;;4979695;28;20588;-70
2022/01/08 09:57:35;;;;;;;0.90;0.90;;;;;;;;;;4980103;28;20556;-74
2022/01/08 10:00:03;;;;;;;1.73;1.30;;;;;;;;;;4979753;28;20213;-72
2022/01/08 10:02:32;;;;;;;1.00;0.87;;;;;;;;;;4981106;28;20217;-71
2022/01/08 10:05:08;;;;;;;3.77;1.50;;;;;;;;;;4982826;28;20239;-74
2022/01/08 10:07:36;;;;;;;1.03;0.77;;;;;;;;;;4979135;28;20205;-72
2022/01/08 10:10:10;;;;;;;5.73;1.30;;;;;;;;;;4979607;28;20198;-75
2022/01/08 10:12:43;;;;;;;1.30;1.20;;;;;;;;;;4982117;28;20663;-71
2022/01/08 10:17:58;;;;;;;1.13;0.50;;;;;;;;;;4981703;28;20244;-73
2022/01/08 10:20:35;;;;;;;1.00;0.87;;;;;;;;;;4981438;28;20213;-79
2022/01/08 10:23:16;;;;;;;0.20;0.20;;;;;;;;;;4980787;28;20233;-75
2022/01/08 10:25:55;;;;;;;9.33;1.77;;;;;;;;;;4980369;28;20233;-75
2022/01/08 10:28:33;;;;;;;0.57;0.57;;;;;;;;;;4980386;28;20724;-70
2022/01/08 10:31:07;;;;;;;2.20;1.13;;;;;;;;;;4981302;28;20255;-73
2022/01/08 10:33:41;;;;;;;0.00;0.00;;;;;;;;;;4977989;28;20193;-73
2022/01/08 10:36:09;;;;;;;0.90;0.90;;;;;;;;;;4977783;28;20216;-75
2022/01/08 10:38:36;;;;;;;0.70;0.53;;;;;;;;;;4979522;28;20212;-77
2022/01/08 10:41:04;;;;;;;2.17;1.20;;;;;;;;;;4980639;28;21173;-72
2022/01/08 10:43:32;;;;;;;0.73;0.40;;;;;;;;;;4980244;28;20232;-73
2022/01/08 10:46:12;;;;;;;2.00;1.23;;;;;;;;;;4982050;28;20260;-74
2022/01/08 10:48:43;;;;;;;0.40;0.40;;;;;;;;;;4982374;28;20202;-77
2022/01/08 10:51:13;;;;;;;0.30;0.23;;;;;;;;;;4978371;28;20213;-77
2022/01/08 10:53:53;;;;;;;0.50;0.27;;;;;;;;;;4983293;28;20822;-72
2022/01/08 10:56:29;;;;;;;0.30;0.30;;;;;;;;;;4983953;28;20600;-72
2022/01/08 10:59:01;;;;;;;0.47;0.47;;;;;;;;;;4981424;28;20202;-75
2022/01/08 11:01:41;;;;;;;1.67;1.57;;;;;;;;;;4983766;28;20580;-74
2022/01/08 11:04:11;;;;;;;0.33;0.33;;;;;;;;;;4977533;28;20245;-75
2022/01/08 11:06:51;;;;;;;0.30;0.30;;;;;;;;;;4980551;28;20221;-73
2022/01/08 11:09:18;;;;;;;0.77;0.77;;;;;;;;;;4982715;28;20202;-77
2022/01/08 11:11:50;;;;;;;1.10;0.87;;;;;;;;;;4985060;28;20205;-81
2022/01/08 11:17:06;;;;;;;0.47;0.27;;;;;;;;;;4985229;28;20234;-76
2022/01/08 11:19:36;;;;;;;0.70;0.70;;;;;;;;;;4984558;28;20213;-79
2022/01/08 11:22:03;;;;;;;3.10;1.53;;;;;;;;;;4982468;28;20214;-75
2022/01/08 11:24:33;;;;;;;4.27;1.13;;;;;;;;;;4983764;28;20699;-78
2022/01/08 11:27:00;;;;;;;3.80;2.67;;;;;;;;;;4984833;28;20198;-81
2022/01/08 11:29:29;;;;;;;1.47;1.13;;;;;;;;;;4983035;28;20214;-73
2022/01/08 11:31:57;;;;;;;1.33;1.20;;;;;;;;;;4985639;28;20209;-80
2022/01/08 11:34:25;;;;;;;1.90;1.60;;;;;;;;;;4982719;28;20216;-80
2022/01/08 11:37:09;;;;;;;0.57;0.57;;;;;;;;;;4984396;28;20209;-72
2022/01/08 11:39:38;;;;;;;1.97;1.43;;;;;;;;;;4983720;28;20726;-77
2022/01/08 11:44:52;;;;;;;1.17;1.10;;;;;;;;;;4983587;28;20229;-77
2022/01/08 11:47:20;;;;;;;1.13;1.07;;;;;;;;;;4981965;28;20316;-71
2022/01/08 11:49:51;;;;;;;2.27;2.10;;;;;;;;;;4983940;28;20194;-77
2022/01/08 11:52:22;;;;;;;0.43;0.40;;;;;;;;;;4982364;28;20762;-76
2022/01/08 11:54:55;;;;;;;0.80;0.80;;;;;;;;;;4983409;28;20202;-74
2022/01/08 11:57:23;;;;;;;0.50;0.50;;;;;;;;;;4981008;28;20303;-76
2022/01/08 11:59:56;;;;;;;1.33;1.23;;;;;;;;;;4983131;28;20202;-77
2022/01/08 12:02:35;;;;;;;0.77;0.77;;;;;;;;;;4981398;28;20281;-76
2022/01/08 12:05:03;;;;;;;2.10;1.30;;;;;;;;;;4981869;28;20332;-79
2022/01/08 12:07:35;;;;;;;0.87;0.73;;;;;;;;;;4983383;28;20224;-78
2022/01/08 12:10:24;;;;;;;1.53;1.43;;;;;;;;;;4982960;28;20676;-77
2022/01/08 12:12:59;;;;;;;2.87;2.30;;;;;;;;;;4983853;28;20671;-80
2022/01/08 12:15:57;;;;;;;1.53;1.43;;;;;;;;;;4982596;28;20205;-77
2022/01/08 12:18:27;;;;;;;2.13;1.97;;;;;;;;;;4929707;29;20211;-79
2022/01/08 12:20:55;;;;;;;0.80;0.80;;;;;;;;;;4970870;28;20206;-76
2022/01/08 12:23:30;;;;;;;2.37;1.87;;;;;;;;;;4980576;28;20216;-79
2022/01/08 12:25:59;;;;;;;2.57;1.80;;;;;;;;;;4981540;28;20711;-77
2022/01/08 12:28:45;;;;;;;2.37;1.53;;;;;;;;;;4983303;28;20659;-74
2022/01/08 12:31:40;;;;;;;1.80;1.63;;;;;;;;;;4981017;28;20671;-73
2022/01/08 12:34:49;;;;;;;1.30;1.20;;;;;;;;;;4972350;28;20210;-75
2022/01/08 12:37:17;;;;;;;0.37;0.37;;;;;;;;;;4907897;29;20577;-80
2022/01/08 12:39:48;;;;;;;1.67;1.57;;;;;;;;;;4971400;28;20206;-79
2022/01/08 12:42:37;;;;;;;2.07;1.97;;;;;;;;;;4981369;28;20219;-82
2022/01/08 12:45:07;;;;;;;2.37;2.23;;;;;;;;;;4980636;28;20234;-77
2022/01/08 12:47:46;;;;;;;1.87;1.77;;;;;;;;;;4982515;28;20206;-77
2022/01/08 12:50:31;;;;;;;0.53;0.53;;;;;;;;;;4982221;28;20683;-77
2022/01/08 12:53:25;;;;;;;2.63;2.43;;;;;;;;;;4982136;28;20240;-74
2022/01/08 12:56:11;;;;;;;1.80;1.70;;;;;;;;;;4953470;28;20203;-76
2022/01/08 12:58:44;;;;;;;1.90;1.80;;;;;;;;;;4979829;28;20213;-74
2022/01/08 13:01:14;;;;;;;0.83;0.83;;;;;;;;;;4981356;28;20299;-74
2022/01/08 13:03:46;;;;;;;0.37;0.37;;;;;;;;;;4982517;28;20209;-74
2022/01/08 13:06:24;;;;;;;0.70;0.60;;;;;;;;;;4980578;28;20213;-76
2022/01/08 13:08:53;;;;;;;2.10;1.87;;;;;;;;;;4980653;28;20198;-79
2022/01/08 13:11:21;;;;;;;0.70;0.30;;;;;;;;;;4981744;28;20202;-78
2022/01/08 13:16:35;;;;;;;1.57;1.47;;;;;;;;;;4980666;28;20240;-76
2022/01/08 13:19:07;;;;;;;0.90;0.87;;;;;;;;;;4980119;28;20680;-76
2022/01/08 13:21:46;;;;;;;1.10;1.00;;;;;;;;;;4981999;28;20288;-73
2022/01/08 13:24:15;;;;;;;2.80;1.67;;;;;;;;;;4979964;28;20299;-77
2022/01/08 13:26:44;;;;;;;0.80;0.80;;;;;;;;;;4977384;28;20202;-74
2022/01/08 13:29:25;;;;;;;3.77;2.43;;;;;;;;;;4980690;28;20206;-76
2022/01/08 13:32:07;;;;;;;3.80;2.73;;;;;;;;;;4980559;28;20202;-73
2022/01/08 13:34:37;;;;;;;2.90;2.70;;;;;;;;;;4980978;28;20220;-76
2022/01/08 13:37:06;;;;;;;4.50;2.30;;;;;;;;;;4981644;28;20208;-77
2022/01/08 13:39:38;;;;;;;1.50;1.40;;;;;;;;;;4981785;28;20237;-75
2022/01/08 13:42:21;;;;;;;1.57;1.47;;;;;;;;;;4982412;28;20207;-73
2022/01/08 13:44:51;;;;;;;1.37;0.80;;;;;;;;;;4978709;28;20229;-75
2022/01/08 13:47:20;;;;;;;2.23;2.03;;;;;;;;;;4981230;28;20639;-77
2022/01/08 13:49:49;;;;;;;2.57;2.47;;;;;;;;;;4981995;28;20202;-71
2022/01/08 13:52:22;;;;;;;3.17;2.50;;;;;;;;;;4980113;28;20237;-76
2022/01/08 13:54:49;;;;;;;9.73;1.80;;;;;;;;;;4981951;28;20209;-71
2022/01/08 13:57:19;;;;;;;5.30;3.17;;;;;;;;;;4980416;28;20563;-79
2022/01/08 13:59:47;;;;;;;6.87;1.10;;;;;;;;;;4979391;28;20567;-72
2022/01/08 14:02:15;;;;;;;4.27;3.87;;;;;;;;;;4981591;28;20255;-73
2022/01/08 14:04:42;;;;;;;1.00;0.90;;;;;;;;;;4980582;28;20237;-74
2022/01/08 14:07:11;;;;;;;0.27;0.23;;;;;;;;;;4980525;28;20212;-75
2022/01/08 14:09:39;;;;;;;2.20;2.10;;;;;;;;;;4980265;28;20570;-77
2022/01/08 14:12:14;;;;;;;3.23;2.93;;;;;;;;;;4980087;28;20213;-76
2022/01/08 14:14:49;;;;;;;0.53;0.53;;;;;;;;;;4979804;28;20712;-78
2022/01/08 14:17:17;;;;;;;1.90;1.80;;;;;;;;;;4979361;28;20209;-72
2022/01/08 14:19:44;;;;;;;3.00;2.33;;;;;;;;;;4978867;28;20687;-77
2022/01/08 14:22:13;;;;;;;1.47;1.37;;;;;;;;;;4980039;28;20739;-81
2022/01/08 14:24:42;;;;;;;4.23;2.80;;;;;;;;;;4980364;28;20608;-80
2022/01/08 14:27:11;;;;;;;4.37;1.93;;;;;;;;;;4980207;28;20236;-77
2022/01/08 14:29:40;;;;;;;6.40;2.43;;;;;;;;;;4979256;28;20208;-76
2022/01/08 14:32:08;;;;;;;2.43;2.23;;;;;;;;;;4982008;28;20289;-72
2022/01/08 14:34:45;;;;;;;0.90;0.87;;;;;;;;;;4980988;28;20213;-79
2022/01/08 14:37:27;;;;;;;2.50;2.30;;;;;;;;;;4979498;28;20204;-77
2022/01/08 14:39:54;;;;;;;3.43;2.30;;;;;;;;;;4979360;28;21874;-74
2022/01/08 14:42:22;;;;;;;1.20;1.17;;;;;;;;;;4979441;28;20194;-78
2022/01/08 14:44:53;;;;;;;1.70;1.20;;;;;;;;;;4980642;28;20225;-76
2022/01/08 14:47:34;;;;;;;1.30;0.80;;;;;;;;;;4980993;28;20210;-73
2022/01/08 14:50:02;;;;;;;1.47;1.47;;;;;;;;;;4980097;28;20605;-74
2022/01/08 14:52:31;;;;;;;2.17;2.07;;;;;;;;;;4980322;28;20210;-76
2022/01/08 14:54:58;;;;;;;2.17;2.07;;;;;;;;;;4979841;28;20197;-77
2022/01/08 14:57:26;;;;;;;1.83;1.57;;;;;;;;;;4981556;28;20227;-78
2022/01/08 14:59:54;;;;;;;1.90;1.47;;;;;;;;;;4981040;28;20594;-79
2022/01/08 15:02:21;;;;;;;2.50;2.30;;;;;;;;;;4983359;28;20198;-76
2022/01/08 15:04:49;;;;;;;3.37;1.77;;;;;;;;;;4978015;28;20703;-77
2022/01/08 15:07:16;;;;;;;2.63;2.10;;;;;;;;;;4978192;28;20205;-78
2022/01/08 15:09:45;;;;;;;1.40;1.30;;;;;;;;;;4980617;28;20533;-77
2022/01/08 15:12:13;;;;;;;0.50;0.50;;;;;;;;;;4982686;28;20209;-79
2022/01/08 15:14:40;;;;;;;1.10;1.00;;;;;;;;;;4981711;28;20197;-77
2022/01/08 15:17:08;;;;;;;0.50;0.47;;;;;;;;;;4975417;28;20292;-78
2022/01/08 15:19:35;;;;;;;1.23;1.00;;;;;;;;;;4980509;28;20209;-75
2022/01/08 15:22:03;;;;;;;2.40;1.23;;;;;;;;;;4979499;28;20205;-75
2022/01/08 15:24:33;;;;;;;2.77;2.20;;;;;;;;;;4983870;28;20236;-76